createdAt,value
2018-12-06T00:01:58.821Z,85.71
2018-12-06T00:06:54.849Z,85.70
2018-12-06T00:11:50.989Z,85.31
2018-12-06T00:16:52.987Z,85.64
2018-12-06T00:21:49.020Z,85.44
2018-12-06T00:26:45.063Z,85.16
2018-12-06T00:31:41.088Z,85.06
2018-12-06T00:36:37.144Z,85.26
2018-12-06T00:41:33.342Z,85.53
2018-12-06T00:46:29.367Z,85.48
2018-12-06T00:51:25.401Z,85.38
2018-12-06T00:56:21.434Z,85.36
2018-12-06T01:01:17.567Z,86.04
2018-12-06T01:06:13.623Z,85.86
2018-12-06T01:11:09.625Z,86.79
2018-12-06T01:16:05.657Z,87.03
2018-12-06T01:21:01.802Z,87.15
2018-12-06T01:25:57.939Z,87.27
2018-12-06T01:30:53.990Z,88.07
2018-12-06T01:35:50.018Z,88.30
2018-12-06T01:40:46.234Z,89.05
2018-12-06T01:45:42.378Z,89.02
2018-12-06T01:50:38.405Z,88.55
2018-12-06T01:55:34.425Z,89.00
2018-12-06T02:00:30.566Z,89.58
2018-12-06T02:05:26.607Z,89.86
2018-12-06T02:10:22.648Z,89.92
2018-12-06T02:15:18.665Z,90.12
2018-12-06T02:20:14.719Z,90.41
2018-12-06T02:25:11.738Z,90.09
2018-12-06T02:30:07.899Z,90.73
2018-12-06T02:35:04.061Z,91.09
2018-12-06T02:40:00.086Z,90.85
2018-12-06T02:44:56.133Z,91.37
2018-12-06T02:49:52.162Z,90.80
2018-12-06T02:54:48.986Z,90.80
2018-12-06T02:59:45.697Z,90.24
2018-12-06T03:04:42.392Z,90.54
2018-12-06T03:09:38.545Z,90.61
2018-12-06T03:14:34.629Z,91.00
2018-12-06T03:19:30.658Z,90.49
2018-12-06T03:24:27.634Z,90.74
2018-12-06T03:29:23.680Z,91.05
2018-12-06T03:34:19.718Z,91.13
2018-12-06T03:39:15.781Z,91.66
2018-12-06T03:44:11.800Z,91.29
2018-12-06T03:49:07.825Z,91.37
2018-12-06T03:54:04.996Z,91.25
2018-12-06T03:59:01.050Z,90.49
2018-12-06T04:03:57.094Z,90.37
2018-12-06T04:08:53.143Z,91.19
2018-12-06T04:13:49.161Z,91.19
2018-12-06T04:18:45.197Z,91.42
2018-12-06T04:23:41.226Z,91.46
2018-12-06T04:28:37.296Z,91.31
2018-12-06T04:33:33.308Z,91.62
2018-12-06T04:38:29.327Z,91.61
2018-12-06T04:43:25.419Z,91.69
2018-12-06T04:48:22.185Z,92.01
2018-12-06T04:53:18.574Z,92.04
2018-12-06T04:58:14.592Z,92.24
2018-12-06T05:03:10.593Z,92.27
2018-12-06T05:08:06.637Z,92.68
2018-12-06T05:13:02.661Z,92.73
2018-12-06T05:17:58.695Z,93.02
2018-12-06T05:22:54.702Z,92.85
2018-12-06T05:27:50.727Z,92.43
2018-12-06T05:32:46.737Z,91.87
2018-12-06T05:37:42.777Z,92.46
2018-12-06T05:42:38.802Z,92.53
2018-12-06T05:47:34.826Z,92.22
2018-12-06T05:52:30.870Z,92.26
2018-12-06T05:57:26.933Z,92.37
2018-12-06T06:02:23.161Z,92.75
2018-12-06T06:07:19.173Z,92.80
2018-12-06T06:12:15.185Z,92.76
2018-12-06T06:17:11.318Z,91.88
2018-12-06T06:22:07.335Z,91.60
2018-12-06T06:27:03.370Z,92.29
2018-12-06T06:31:59.390Z,92.88
2018-12-06T06:36:55.413Z,92.67
2018-12-06T06:41:51.499Z,92.27
2018-12-06T06:46:47.572Z,92.88
2018-12-06T06:51:43.608Z,92.81
2018-12-06T06:56:39.642Z,92.91
2018-12-06T07:01:35.676Z,93.09
2018-12-06T07:06:31.891Z,93.71
2018-12-06T07:11:28.027Z,94.16
2018-12-06T07:16:24.115Z,94.28
2018-12-06T07:21:20.160Z,94.42
2018-12-06T07:26:16.227Z,94.16
2018-12-06T07:31:12.306Z,94.38
2018-12-06T07:36:08.326Z,94.31
2018-12-06T07:41:04.549Z,94.30
2018-12-06T07:46:06.623Z,94.14
2018-12-06T07:51:02.670Z,94.40
2018-12-06T07:55:58.729Z,94.45
2018-12-06T08:00:54.815Z,93.98
2018-12-06T08:05:50.958Z,94.27
2018-12-06T08:10:47.006Z,94.53
2018-12-06T08:15:43.218Z,94.03
2018-12-06T08:20:39.252Z,94.82
2018-12-06T08:25:35.270Z,94.76
2018-12-06T08:30:31.295Z,94.89
2018-12-06T08:35:27.598Z,94.76
2018-12-06T08:40:23.667Z,94.72
2018-12-06T08:45:19.820Z,93.91
2018-12-06T08:50:15.899Z,94.00
2018-12-06T08:55:12.684Z,94.78
2018-12-06T09:00:09.634Z,94.29
2018-12-06T09:05:06.069Z,94.46
2018-12-06T09:10:03.919Z,95.03
2018-12-06T09:14:59.985Z,94.30
2018-12-06T09:19:56.029Z,94.51
2018-12-06T09:24:52.897Z,94.78
2018-12-06T09:29:48.934Z,94.62
2018-12-06T09:34:45.097Z,94.85
2018-12-06T09:39:48.043Z,95.11
2018-12-06T09:44:45.611Z,95.37
2018-12-06T09:49:41.722Z,94.58
2018-12-06T09:54:43.118Z,94.63
2018-12-06T09:59:39.341Z,95.01
2018-12-06T10:04:35.396Z,95.13
2018-12-06T10:09:31.434Z,95.28
2018-12-06T10:14:27.472Z,95.18
2018-12-06T10:19:23.606Z,94.21
2018-12-06T10:24:21.915Z,94.88
2018-12-06T10:29:18.650Z,94.74
2018-12-06T10:34:14.693Z,93.65
2018-12-06T10:39:10.736Z,93.88
2018-12-06T10:44:06.813Z,94.18
2018-12-06T10:49:02.853Z,94.23
2018-12-06T10:54:01.362Z,93.78
2018-12-06T10:58:57.488Z,94.78
2018-12-06T11:03:56.505Z,94.18
2018-12-06T11:08:52.566Z,94.59
2018-12-06T11:13:48.605Z,94.64
2018-12-06T11:18:44.663Z,94.43
2018-12-06T11:24:16.636Z,94.71
2018-12-06T11:29:12.817Z,94.50
2018-12-06T11:34:08.964Z,94.40
2018-12-06T11:39:06.330Z,94.56
2018-12-06T11:44:02.504Z,95.26
2018-12-06T11:48:58.537Z,95.18
2018-12-06T11:53:54.570Z,95.17
2018-12-06T11:58:50.631Z,95.18
2018-12-06T12:03:46.722Z,95.61
2018-12-06T12:08:42.797Z,95.92
2018-12-06T12:13:38.858Z,96.07
2018-12-06T12:18:34.932Z,96.12
2018-12-06T12:23:31.023Z,95.58
2018-12-06T12:28:27.079Z,95.67
2018-12-06T12:33:23.131Z,96.09
2018-12-06T12:38:19.306Z,96.38
2018-12-06T12:43:15.353Z,96.00
2018-12-06T12:48:11.390Z,96.57
2018-12-06T12:53:07.450Z,96.32
2018-12-06T12:58:03.467Z,96.60
2018-12-06T13:02:59.613Z,96.58
2018-12-06T13:07:55.679Z,96.26
2018-12-06T13:12:51.841Z,96.58
2018-12-06T13:17:48.865Z,96.49
2018-12-06T13:22:45.554Z,96.65
2018-12-06T13:27:44.334Z,96.39
2018-12-06T13:32:40.987Z,96.35
2018-12-06T13:37:39.975Z,96.01
2018-12-06T13:42:37.987Z,96.27
2018-12-06T13:47:34.821Z,95.75
2018-12-06T13:52:31.666Z,95.70
2018-12-06T13:57:29.127Z,95.69
2018-12-06T14:02:26.772Z,95.64
2018-12-06T14:07:23.562Z,95.30
2018-12-06T14:12:20.270Z,94.74
2018-12-06T14:17:19.332Z,95.09
2018-12-06T14:22:16.019Z,94.74
2018-12-06T14:27:12.926Z,94.88
2018-12-06T14:32:10.147Z,94.80
2018-12-06T14:37:07.344Z,94.06
2018-12-06T14:42:07.246Z,93.44
2018-12-06T14:47:04.139Z,92.85
2018-12-06T14:52:01.018Z,93.56
2018-12-06T14:56:58.134Z,93.85
2018-12-06T15:01:55.011Z,93.04
2018-12-06T15:06:54.044Z,92.47
2018-12-06T15:11:51.941Z,93.48
2018-12-06T15:16:49.495Z,93.66
2018-12-06T15:21:46.408Z,93.85
2018-12-06T15:26:43.623Z,92.43
2018-12-06T15:31:45.605Z,92.43
2018-12-06T15:36:43.219Z,92.38
2018-12-06T15:41:40.983Z,91.90
2018-12-06T15:46:38.129Z,91.07
2018-12-06T15:51:34.715Z,91.04
2018-12-06T15:56:31.583Z,91.30
2018-12-06T16:01:28.050Z,91.24
2018-12-06T16:06:25.082Z,90.74
2018-12-06T16:11:21.374Z,91.47
2018-12-06T16:16:18.045Z,90.61
2018-12-06T16:21:14.453Z,90.92
2018-12-06T16:26:16.933Z,90.87
2018-12-06T16:31:13.677Z,90.71
2018-12-06T16:36:10.794Z,90.27
2018-12-06T16:41:08.644Z,90.54
2018-12-06T16:46:05.366Z,89.77
2018-12-06T16:51:01.645Z,90.92
2018-12-06T16:55:57.878Z,90.15
2018-12-06T17:00:55.093Z,89.89
2018-12-06T17:05:52.569Z,90.28
2018-12-06T17:10:49.326Z,90.26
2018-12-06T17:15:46.271Z,90.01
2018-12-06T17:20:46.827Z,89.78
2018-12-06T17:25:43.572Z,90.26
2018-12-06T17:30:41.149Z,89.44
2018-12-06T17:35:38.899Z,90.20
2018-12-06T17:40:37.215Z,90.56
2018-12-06T17:45:34.022Z,89.71
2018-12-06T17:50:32.217Z,89.28
2018-12-06T17:55:34.425Z,89.98
2018-12-06T18:00:30.986Z,90.05
2018-12-06T18:05:31.760Z,88.77
2018-12-06T18:10:28.685Z,89.98
2018-12-06T18:15:26.181Z,89.27
2018-12-06T18:20:23.521Z,89.50
2018-12-06T18:25:21.072Z,88.95
2018-12-06T18:30:18.236Z,88.68
2018-12-06T18:35:14.838Z,88.56
2018-12-06T18:40:12.582Z,88.82
2018-12-06T18:45:09.432Z,88.83
2018-12-06T18:50:06.899Z,89.07
2018-12-06T18:55:06.476Z,89.28
2018-12-06T19:00:04.551Z,89.77
2018-12-06T19:05:01.342Z,89.27
2018-12-06T19:09:58.105Z,89.42
2018-12-06T19:14:55.854Z,89.84
2018-12-06T19:19:52.760Z,89.72
2018-12-06T19:24:49.603Z,89.51
2018-12-06T19:29:46.361Z,90.04
2018-12-06T19:34:43.564Z,89.62
2018-12-06T19:39:46.411Z,90.03
2018-12-06T19:44:43.862Z,89.58
2018-12-06T19:49:40.899Z,89.96
2018-12-06T19:54:37.674Z,90.17
2018-12-06T19:59:35.392Z,90.50
2018-12-06T20:04:32.376Z,90.21
2018-12-06T20:09:30.067Z,90.70
2018-12-06T20:14:26.967Z,91.43
2018-12-06T20:19:24.662Z,91.12
2018-12-06T20:24:22.611Z,91.54
2018-12-06T20:29:19.532Z,91.33
2018-12-06T20:34:16.897Z,91.15
2018-12-06T20:39:12.997Z,91.14
2018-12-06T20:44:08.998Z,91.33
2018-12-06T20:49:05.051Z,90.78
2018-12-06T20:54:02.640Z,91.00
2018-12-06T20:58:58.706Z,90.88
2018-12-06T21:03:54.713Z,90.48
2018-12-06T21:08:50.724Z,90.88
2018-12-06T21:13:46.737Z,90.30
2018-12-06T21:18:42.830Z,90.82
2018-12-06T21:23:38.834Z,90.50
2018-12-06T21:28:34.860Z,91.06
2018-12-06T21:33:30.889Z,90.83
2018-12-06T21:38:26.897Z,91.43
2018-12-06T21:43:22.920Z,90.74
2018-12-06T21:48:18.927Z,91.24
2018-12-06T21:53:14.933Z,91.71
2018-12-06T21:58:11.059Z,91.45
2018-12-06T22:03:07.067Z,91.63
2018-12-06T22:08:07.254Z,91.36
2018-12-06T22:13:05.764Z,91.28
2018-12-06T22:18:02.846Z,91.18
2018-12-06T22:23:01.196Z,90.83
2018-12-06T22:27:58.493Z,90.35
2018-12-06T22:32:54.575Z,90.82
2018-12-06T22:37:50.683Z,90.60
2018-12-06T22:42:46.682Z,90.16
2018-12-06T22:47:42.709Z,89.25
2018-12-06T22:52:38.726Z,89.42
2018-12-06T22:57:34.743Z,89.91
2018-12-06T23:02:30.762Z,89.80
2018-12-06T23:07:26.790Z,89.94
2018-12-06T23:12:22.804Z,90.81
2018-12-06T23:17:18.842Z,91.14
2018-12-06T23:22:15.890Z,90.78
2018-12-06T23:27:13.400Z,91.70
2018-12-06T23:32:11.369Z,92.32
2018-12-06T23:37:07.768Z,92.46
2018-12-06T23:42:04.465Z,92.78
2018-12-06T23:47:00.529Z,93.27
2018-12-06T23:51:56.534Z,94.02
2018-12-06T23:56:54.561Z,94.57
